sensor_id;sensor_type;location;lat;lon;timestamp;temperature;humidity
29721;DHT22;23665;51.044;3.748;2023-01-15T00:00:13;9.90;60.90
29721;DHT22;23665;51.044;3.748;2023-01-15T00:02:38;9.90;53.30
29721;DHT22;23665;51.044;3.748;2023-01-15T00:05:04;10.00;54.70
29721;DHT22;23665;51.044;3.748;2023-01-15T00:07:31;10.00;42.70
29721;DHT22;23665;51.044;3.748;2023-01-15T00:09:57;10.00;34.40
29721;DHT22;23665;51.044;3.748;2023-01-15T00:12:22;10.00;29.50
29721;DHT22;23665;51.044;3.748;2023-01-15T00:14:48;9.90;32.50
29721;DHT22;23665;51.044;3.748;2023-01-15T00:17:14;9.90;41.50
29721;DHT22;23665;51.044;3.748;2023-01-15T00:19:40;9.90;32.50
29721;DHT22;23665;51.044;3.748;2023-01-15T00:22:06;9.80;37.80
29721;DHT22;23665;51.044;3.748;2023-01-15T00:24:31;9.80;42.70
29721;DHT22;23665;51.044;3.748;2023-01-15T00:27:17;9.80;42.90
29721;DHT22;23665;51.044;3.748;2023-01-15T00:30:02;9.80;42.90
29721;DHT22;23665;51.044;3.748;2023-01-15T00:32:28;9.80;39.90
29721;DHT22;23665;51.044;3.748;2023-01-15T00:34:54;9.80;47.00
29721;DHT22;23665;51.044;3.748;2023-01-15T00:37:20;9.80;46.80
29721;DHT22;23665;51.044;3.748;2023-01-15T00:39:46;9.70;50.60
29721;DHT22;23665;51.044;3.748;2023-01-15T00:42:12;9.70;50.20
29721;DHT22;23665;51.044;3.748;2023-01-15T00:44:38;9.80;47.10
29721;DHT22;23665;51.044;3.748;2023-01-15T00:47:04;9.80;42.50
29721;DHT22;23665;51.044;3.748;2023-01-15T00:49:30;9.80;36.50
29721;DHT22;23665;51.044;3.748;2023-01-15T00:51:56;9.70;33.70
29721;DHT22;23665;51.044;3.748;2023-01-15T00:54:22;9.60;42.30
29721;DHT22;23665;51.044;3.748;2023-01-15T00:56:48;9.60;42.70
29721;DHT22;23665;51.044;3.748;2023-01-15T00:59:13;9.60;46.60
29721;DHT22;23665;51.044;3.748;2023-01-15T01:01:39;9.70;42.50
29721;DHT22;23665;51.044;3.748;2023-01-15T01:04:05;9.60;42.70
29721;DHT22;23665;51.044;3.748;2023-01-15T01:06:31;9.60;43.00
29721;DHT22;23665;51.044;3.748;2023-01-15T01:08:56;9.50;41.40
29721;DHT22;23665;51.044;3.748;2023-01-15T01:11:24;9.50;31.70
29721;DHT22;23665;51.044;3.748;2023-01-15T01:13:52;9.50;38.10
29721;DHT22;23665;51.044;3.748;2023-01-15T01:16:32;9.50;37.80
29721;DHT22;23665;51.044;3.748;2023-01-15T01:19:02;9.60;33.50
29721;DHT22;23665;51.044;3.748;2023-01-15T01:21:29;9.60;37.50
29721;DHT22;23665;51.044;3.748;2023-01-15T01:23:57;9.50;28.30
29721;DHT22;23665;51.044;3.748;2023-01-15T01:26:23;9.50;26.10
29721;DHT22;23665;51.044;3.748;2023-01-15T01:28:50;9.50;27.60
29721;DHT22;23665;51.044;3.748;2023-01-15T01:31:16;9.50;20.50
29721;DHT22;23665;51.044;3.748;2023-01-15T01:33:42;9.50;23.00
29721;DHT22;23665;51.044;3.748;2023-01-15T01:36:08;9.50;24.40
29721;DHT22;23665;51.044;3.748;2023-01-15T01:38:34;9.50;23.60
29721;DHT22;23665;51.044;3.748;2023-01-15T01:41:00;9.40;32.30
29721;DHT22;23665;51.044;3.748;2023-01-15T01:43:28;9.40;37.30
29721;DHT22;23665;51.044;3.748;2023-01-15T01:45:55;9.50;34.80
29721;DHT22;23665;51.044;3.748;2023-01-15T01:48:26;9.40;30.00
29721;DHT22;23665;51.044;3.748;2023-01-15T01:50:55;9.40;36.50
29721;DHT22;23665;51.044;3.748;2023-01-15T01:53:25;9.30;43.50
29721;DHT22;23665;51.044;3.748;2023-01-15T01:55:53;9.30;46.00
29721;DHT22;23665;51.044;3.748;2023-01-15T01:58:20;9.30;48.50
29721;DHT22;23665;51.044;3.748;2023-01-15T02:00:49;9.30;51.80
29721;DHT22;23665;51.044;3.748;2023-01-15T02:03:17;9.30;53.00
29721;DHT22;23665;51.044;3.748;2023-01-15T02:05:48;9.50;52.90
29721;DHT22;23665;51.044;3.748;2023-01-15T02:08:15;9.50;54.70
29721;DHT22;23665;51.044;3.748;2023-01-15T02:10:41;9.40;54.70
29721;DHT22;23665;51.044;3.748;2023-01-15T02:13:10;9.20;66.60
29721;DHT22;23665;51.044;3.748;2023-01-15T02:15:46;9.20;68.00
29721;DHT22;23665;51.044;3.748;2023-01-15T02:18:23;9.10;79.40
29721;DHT22;23665;51.044;3.748;2023-01-15T02:21:04;9.10;81.40
29721;DHT22;23665;51.044;3.748;2023-01-15T02:29:55;9.20;69.40
29721;DHT22;23665;51.044;3.748;2023-01-15T02:32:47;9.10;63.00
29721;DHT22;23665;51.044;3.748;2023-01-15T02:35:20;9.20;64.50
29721;DHT22;23665;51.044;3.748;2023-01-15T02:37:50;9.20;60.30
29721;DHT22;23665;51.044;3.748;2023-01-15T02:40:20;9.20;59.50
29721;DHT22;23665;51.044;3.748;2023-01-15T02:42:48;9.10;64.20
29721;DHT22;23665;51.044;3.748;2023-01-15T02:45:16;9.10;62.00
29721;DHT22;23665;51.044;3.748;2023-01-15T02:47:48;9.10;66.10
29721;DHT22;23665;51.044;3.748;2023-01-15T02:50:19;9.10;67.40
29721;DHT22;23665;51.044;3.748;2023-01-15T02:52:51;9.00;68.10
29721;DHT22;23665;51.044;3.748;2023-01-15T02:55:26;9.00;71.00
29721;DHT22;23665;51.044;3.748;2023-01-15T02:57:55;8.90;71.70
29721;DHT22;23665;51.044;3.748;2023-01-15T03:00:25;8.90;66.50
29721;DHT22;23665;51.044;3.748;2023-01-15T03:02:59;9.00;63.20
29721;DHT22;23665;51.044;3.748;2023-01-15T03:05:30;9.10;53.80
29721;DHT22;23665;51.044;3.748;2023-01-15T03:07:59;9.10;49.40
29721;DHT22;23665;51.044;3.748;2023-01-15T03:10:47;9.00;46.20
29721;DHT22;23665;51.044;3.748;2023-01-15T03:13:30;9.00;50.80
29721;DHT22;23665;51.044;3.748;2023-01-15T03:16:11;8.90;47.80
29721;DHT22;23665;51.044;3.748;2023-01-15T03:19:21;8.80;53.30
29721;DHT22;23665;51.044;3.748;2023-01-15T03:22:08;8.80;57.70
29721;DHT22;23665;51.044;3.748;2023-01-15T03:24:50;8.90;52.60
29721;DHT22;23665;51.044;3.748;2023-01-15T03:27:18;9.00;44.40
29721;DHT22;23665;51.044;3.748;2023-01-15T03:29:50;9.00;42.40
29721;DHT22;23665;51.044;3.748;2023-01-15T03:32:18;9.00;40.10
29721;DHT22;23665;51.044;3.748;2023-01-15T03:34:53;9.00;38.20
29721;DHT22;23665;51.044;3.748;2023-01-15T03:37:21;8.90;38.30
29721;DHT22;23665;51.044;3.748;2023-01-15T03:39:47;8.90;43.00
29721;DHT22;23665;51.044;3.748;2023-01-15T03:47:57;8.70;50.60
29721;DHT22;23665;51.044;3.748;2023-01-15T03:53:26;8.60;58.90
29721;DHT22;23665;51.044;3.748;2023-01-15T03:56:06;8.40;68.90
29721;DHT22;23665;51.044;3.748;2023-01-15T03:58:42;8.40;75.30
29721;DHT22;23665;51.044;3.748;2023-01-15T04:01:12;8.40;77.90
29721;DHT22;23665;51.044;3.748;2023-01-15T04:03:41;8.50;85.10
29721;DHT22;23665;51.044;3.748;2023-01-15T04:06:08;8.60;83.30
29721;DHT22;23665;51.044;3.748;2023-01-15T04:08:37;8.50;94.20
29721;DHT22;23665;51.044;3.748;2023-01-15T04:11:04;8.50;99.90
29721;DHT22;23665;51.044;3.748;2023-01-15T04:13:30;8.50;99.90
29721;DHT22;23665;51.044;3.748;2023-01-15T04:15:56;8.40;99.90
29721;DHT22;23665;51.044;3.748;2023-01-15T04:18:22;8.50;99.90
29721;DHT22;23665;51.044;3.748;2023-01-15T04:20:49;8.40;99.90
29721;DHT22;23665;51.044;3.748;2023-01-15T04:23:15;8.50;99.90
29721;DHT22;23665;51.044;3.748;2023-01-15T04:25:41;8.50;99.90
29721;DHT22;23665;51.044;3.748;2023-01-15T04:28:07;8.50;99.90
29721;DHT22;23665;51.044;3.748;2023-01-15T04:30:34;8.50;97.30
29721;DHT22;23665;51.044;3.748;2023-01-15T04:33:00;8.50;96.80
29721;DHT22;23665;51.044;3.748;2023-01-15T04:35:26;8.50;95.00
29721;DHT22;23665;51.044;3.748;2023-01-15T04:37:56;8.50;91.30
29721;DHT22;23665;51.044;3.748;2023-01-15T04:40:22;8.50;96.80
29721;DHT22;23665;51.044;3.748;2023-01-15T04:43:11;8.50;98.20
29721;DHT22;23665;51.044;3.748;2023-01-15T04:45:55;8.40;99.90
29721;DHT22;23665;51.044;3.748;2023-01-15T04:48:21;8.30;99.90
29721;DHT22;23665;51.044;3.748;2023-01-15T04:50:47;8.30;99.90
29721;DHT22;23665;51.044;3.748;2023-01-15T04:53:13;8.20;99.90
29721;DHT22;23665;51.044;3.748;2023-01-15T04:55:39;8.20;99.90
29721;DHT22;23665;51.044;3.748;2023-01-15T04:58:05;8.10;99.90
29721;DHT22;23665;51.044;3.748;2023-01-15T05:00:30;8.10;99.90
29721;DHT22;23665;51.044;3.748;2023-01-15T05:02:56;8.10;99.90
29721;DHT22;23665;51.044;3.748;2023-01-15T05:05:22;8.00;99.90
29721;DHT22;23665;51.044;3.748;2023-01-15T05:07:48;8.10;99.90
29721;DHT22;23665;51.044;3.748;2023-01-15T05:10:13;8.10;99.90
29721;DHT22;23665;51.044;3.748;2023-01-15T05:12:39;8.20;99.90
29721;DHT22;23665;51.044;3.748;2023-01-15T05:15:05;8.20;99.90
29721;DHT22;23665;51.044;3.748;2023-01-15T05:17:32;8.20;99.90
29721;DHT22;23665;51.044;3.748;2023-01-15T05:19:58;8.10;99.90
29721;DHT22;23665;51.044;3.748;2023-01-15T05:22:24;8.20;99.90
29721;DHT22;23665;51.044;3.748;2023-01-15T05:24:49;8.20;91.70
29721;DHT22;23665;51.044;3.748;2023-01-15T05:27:16;8.00;92.70
29721;DHT22;23665;51.044;3.748;2023-01-15T05:29:41;8.00;91.50
29721;DHT22;23665;51.044;3.748;2023-01-15T05:32:07;8.10;83.40
29721;DHT22;23665;51.044;3.748;2023-01-15T05:34:33;8.10;86.30
29721;DHT22;23665;51.044;3.748;2023-01-15T05:36:59;8.00;89.10
29721;DHT22;23665;51.044;3.748;2023-01-15T05:39:24;8.00;82.30
29721;DHT22;23665;51.044;3.748;2023-01-15T05:41:50;8.00;86.40
29721;DHT22;23665;51.044;3.748;2023-01-15T05:44:24;8.00;87.10
29721;DHT22;23665;51.044;3.748;2023-01-15T05:46:52;8.00;88.20
29721;DHT22;23665;51.044;3.748;2023-01-15T05:49:21;8.00;91.10
29721;DHT22;23665;51.044;3.748;2023-01-15T05:51:48;7.90;94.90
29721;DHT22;23665;51.044;3.748;2023-01-15T05:54:19;7.90;93.30
29721;DHT22;23665;51.044;3.748;2023-01-15T05:56:45;7.80;97.00
29721;DHT22;23665;51.044;3.748;2023-01-15T05:59:12;7.80;98.90
29721;DHT22;23665;51.044;3.748;2023-01-15T06:01:39;7.70;99.90
29721;DHT22;23665;51.044;3.748;2023-01-15T06:04:05;7.80;99.90
29721;DHT22;23665;51.044;3.748;2023-01-15T06:06:31;7.70;99.90
29721;DHT22;23665;51.044;3.748;2023-01-15T06:08:57;7.60;99.90
29721;DHT22;23665;51.044;3.748;2023-01-15T06:11:24;7.50;99.90
29721;DHT22;23665;51.044;3.748;2023-01-15T06:13:50;7.40;99.90
29721;DHT22;23665;51.044;3.748;2023-01-15T06:16:16;7.40;99.90
29721;DHT22;23665;51.044;3.748;2023-01-15T06:18:43;7.30;99.90
29721;DHT22;23665;51.044;3.748;2023-01-15T06:21:11;7.20;99.90
29721;DHT22;23665;51.044;3.748;2023-01-15T06:23:38;7.10;99.90
29721;DHT22;23665;51.044;3.748;2023-01-15T06:26:11;6.90;99.90
29721;DHT22;23665;51.044;3.748;2023-01-15T06:28:37;6.90;99.90
29721;DHT22;23665;51.044;3.748;2023-01-15T06:31:07;6.90;99.90
29721;DHT22;23665;51.044;3.748;2023-01-15T06:33:33;6.90;99.90
29721;DHT22;23665;51.044;3.748;2023-01-15T06:36:09;7.00;99.90
29721;DHT22;23665;51.044;3.748;2023-01-15T06:38:35;6.90;99.90
29721;DHT22;23665;51.044;3.748;2023-01-15T06:41:03;6.90;99.90
29721;DHT22;23665;51.044;3.748;2023-01-15T06:43:29;6.90;99.90
29721;DHT22;23665;51.044;3.748;2023-01-15T06:46:14;6.90;99.90
29721;DHT22;23665;51.044;3.748;2023-01-15T06:48:59;7.00;99.90
29721;DHT22;23665;51.044;3.748;2023-01-15T06:51:25;7.00;99.90
29721;DHT22;23665;51.044;3.748;2023-01-15T06:53:51;6.90;99.90
29721;DHT22;23665;51.044;3.748;2023-01-15T06:56:17;6.80;99.90
29721;DHT22;23665;51.044;3.748;2023-01-15T06:58:43;6.80;99.90
29721;DHT22;23665;51.044;3.748;2023-01-15T07:01:14;6.90;99.90
29721;DHT22;23665;51.044;3.748;2023-01-15T07:03:40;6.90;99.90
29721;DHT22;23665;51.044;3.748;2023-01-15T07:06:10;6.80;99.90
29721;DHT22;23665;51.044;3.748;2023-01-15T07:08:37;6.70;99.90
29721;DHT22;23665;51.044;3.748;2023-01-15T07:11:05;6.70;99.90
29721;DHT22;23665;51.044;3.748;2023-01-15T07:13:31;6.70;99.90
29721;DHT22;23665;51.044;3.748;2023-01-15T07:16:01;6.50;99.90
29721;DHT22;23665;51.044;3.748;2023-01-15T07:18:28;6.60;99.90
29721;DHT22;23665;51.044;3.748;2023-01-15T07:20:55;6.50;99.90
29721;DHT22;23665;51.044;3.748;2023-01-15T07:23:23;6.60;99.90
29721;DHT22;23665;51.044;3.748;2023-01-15T07:25:50;6.50;99.90
29721;DHT22;23665;51.044;3.748;2023-01-15T07:28:16;6.60;99.90
29721;DHT22;23665;51.044;3.748;2023-01-15T07:30:42;6.50;99.90
29721;DHT22;23665;51.044;3.748;2023-01-15T07:33:08;6.50;99.90
29721;DHT22;23665;51.044;3.748;2023-01-15T07:35:34;6.60;99.90
29721;DHT22;23665;51.044;3.748;2023-01-15T07:38:01;6.60;99.90
29721;DHT22;23665;51.044;3.748;2023-01-15T07:40:27;6.50;99.90
29721;DHT22;23665;51.044;3.748;2023-01-15T07:42:53;6.50;99.90
29721;DHT22;23665;51.044;3.748;2023-01-15T07:45:41;6.50;99.90
29721;DHT22;23665;51.044;3.748;2023-01-15T07:48:31;6.60;99.90
29721;DHT22;23665;51.044;3.748;2023-01-15T07:51:15;6.70;99.90
29721;DHT22;23665;51.044;3.748;2023-01-15T07:53:40;6.70;99.90
29721;DHT22;23665;51.044;3.748;2023-01-15T07:56:06;6.70;99.90
29721;DHT22;23665;51.044;3.748;2023-01-15T07:58:32;6.60;99.90
29721;DHT22;23665;51.044;3.748;2023-01-15T08:00:58;6.70;99.90
29721;DHT22;23665;51.044;3.748;2023-01-15T08:03:24;6.60;99.90
29721;DHT22;23665;51.044;3.748;2023-01-15T08:05:50;6.70;99.90
29721;DHT22;23665;51.044;3.748;2023-01-15T08:08:16;6.70;99.90
29721;DHT22;23665;51.044;3.748;2023-01-15T08:10:42;7.60;99.90
29721;DHT22;23665;51.044;3.748;2023-01-15T08:13:27;8.20;99.90
29721;DHT22;23665;51.044;3.748;2023-01-15T08:16:11;8.60;99.90
29721;DHT22;23665;51.044;3.748;2023-01-15T08:18:37;9.40;99.90
29721;DHT22;23665;51.044;3.748;2023-01-15T08:21:03;9.90;99.90
29721;DHT22;23665;51.044;3.748;2023-01-15T08:23:29;10.20;99.90
29721;DHT22;23665;51.044;3.748;2023-01-15T08:25:58;10.30;99.90
29721;DHT22;23665;51.044;3.748;2023-01-15T08:28:24;10.10;99.90
29721;DHT22;23665;51.044;3.748;2023-01-15T08:30:50;10.20;99.90
29721;DHT22;23665;51.044;3.748;2023-01-15T08:33:16;10.50;99.90
29721;DHT22;23665;51.044;3.748;2023-01-15T08:35:42;10.30;99.90
29721;DHT22;23665;51.044;3.748;2023-01-15T08:38:07;10.70;99.90
29721;DHT22;23665;51.044;3.748;2023-01-15T08:40:34;11.00;99.90
29721;DHT22;23665;51.044;3.748;2023-01-15T08:43:20;11.30;99.90
29721;DHT22;23665;51.044;3.748;2023-01-15T08:45:48;11.60;99.90
29721;DHT22;23665;51.044;3.748;2023-01-15T08:48:13;11.80;15.70
29721;DHT22;23665;51.044;3.748;2023-01-15T08:50:39;11.90;97.70
29721;DHT22;23665;51.044;3.748;2023-01-15T08:53:05;12.00;54.50
29721;DHT22;23665;51.044;3.748;2023-01-15T08:55:30;12.00;16.20
29721;DHT22;23665;51.044;3.748;2023-01-15T08:57:57;12.10;53.30
29721;DHT22;23665;51.044;3.748;2023-01-15T09:00:23;11.60;1.00
29721;DHT22;23665;51.044;3.748;2023-01-15T09:02:49;11.00;8.80
29721;DHT22;23665;51.044;3.748;2023-01-15T09:05:15;11.10;50.80
29721;DHT22;23665;51.044;3.748;2023-01-15T09:07:41;11.20;42.20
29721;DHT22;23665;51.044;3.748;2023-01-15T09:10:07;11.50;71.30
29721;DHT22;23665;51.044;3.748;2023-01-15T09:12:33;11.80;57.20
29721;DHT22;23665;51.044;3.748;2023-01-15T09:14:59;11.60;40.60
29721;DHT22;23665;51.044;3.748;2023-01-15T09:17:26;11.30;26.90
29721;DHT22;23665;51.044;3.748;2023-01-15T09:19:52;11.10;26.50
29721;DHT22;23665;51.044;3.748;2023-01-15T09:22:17;11.00;88.00
29721;DHT22;23665;51.044;3.748;2023-01-15T09:24:43;11.10;63.80
29721;DHT22;23665;51.044;3.748;2023-01-15T09:27:11;11.30;36.10
29721;DHT22;23665;51.044;3.748;2023-01-15T09:29:37;11.10;24.50
29721;DHT22;23665;51.044;3.748;2023-01-15T09:32:02;11.20;9.10
29721;DHT22;23665;51.044;3.748;2023-01-15T09:34:28;11.10;33.00
29721;DHT22;23665;51.044;3.748;2023-01-15T09:36:54;11.20;46.00
29721;DHT22;23665;51.044;3.748;2023-01-15T09:39:19;10.90;56.60
29721;DHT22;23665;51.044;3.748;2023-01-15T09:49:36;8.20;71.30
29721;DHT22;23665;51.044;3.748;2023-01-15T09:55:19;7.60;99.00
29721;DHT22;23665;51.044;3.748;2023-01-15T09:57:51;7.40;99.90
29721;DHT22;23665;51.044;3.748;2023-01-15T10:00:24;7.30;99.90
29721;DHT22;23665;51.044;3.748;2023-01-15T10:08:31;7.20;99.90
29721;DHT22;23665;51.044;3.748;2023-01-15T10:11:27;7.20;99.90
29721;DHT22;23665;51.044;3.748;2023-01-15T10:14:18;7.20;99.90
29721;DHT22;23665;51.044;3.748;2023-01-15T10:16:45;7.20;99.90
29721;DHT22;23665;51.044;3.748;2023-01-15T10:19:11;7.20;99.90
29721;DHT22;23665;51.044;3.748;2023-01-15T10:21:51;7.30;99.90
29721;DHT22;23665;51.044;3.748;2023-01-15T10:24:31;7.40;99.90
29721;DHT22;23665;51.044;3.748;2023-01-15T10:27:00;7.40;99.90
29721;DHT22;23665;51.044;3.748;2023-01-15T10:29:41;7.40;99.90
29721;DHT22;23665;51.044;3.748;2023-01-15T10:35:04;7.40;99.90
29721;DHT22;23665;51.044;3.748;2023-01-15T10:37:56;7.50;99.90
29721;DHT22;23665;51.044;3.748;2023-01-15T10:43:22;7.60;99.90
29721;DHT22;23665;51.044;3.748;2023-01-15T10:45:55;7.70;99.90
29721;DHT22;23665;51.044;3.748;2023-01-15T10:48:44;7.70;99.90
29721;DHT22;23665;51.044;3.748;2023-01-15T10:51:23;7.80;99.90
29721;DHT22;23665;51.044;3.748;2023-01-15T10:59:53;8.00;99.90
29721;DHT22;23665;51.044;3.748;2023-01-15T11:02:42;8.20;99.90
29721;DHT22;23665;51.044;3.748;2023-01-15T11:05:17;8.20;99.90
29721;DHT22;23665;51.044;3.748;2023-01-15T11:07:46;8.20;99.90
29721;DHT22;23665;51.044;3.748;2023-01-15T11:10:15;8.20;99.90
29721;DHT22;23665;51.044;3.748;2023-01-15T11:12:54;8.20;99.90
29721;DHT22;23665;51.044;3.748;2023-01-15T11:15:40;8.30;99.90
29721;DHT22;23665;51.044;3.748;2023-01-15T11:18:32;8.40;99.90
29721;DHT22;23665;51.044;3.748;2023-01-15T11:21:21;8.20;99.90
29721;DHT22;23665;51.044;3.748;2023-01-15T11:23:47;8.20;99.90
29721;DHT22;23665;51.044;3.748;2023-01-15T11:26:35;8.20;99.90
29721;DHT22;23665;51.044;3.748;2023-01-15T11:29:18;8.40;99.90
29721;DHT22;23665;51.044;3.748;2023-01-15T11:31:45;8.30;99.90
29721;DHT22;23665;51.044;3.748;2023-01-15T11:34:29;8.30;99.90
29721;DHT22;23665;51.044;3.748;2023-01-15T11:37:04;8.30;99.90
29721;DHT22;23665;51.044;3.748;2023-01-15T11:39:30;8.40;99.90
29721;DHT22;23665;51.044;3.748;2023-01-15T11:42:02;8.20;99.90
29721;DHT22;23665;51.044;3.748;2023-01-15T11:44:55;8.40;99.90
29721;DHT22;23665;51.044;3.748;2023-01-15T11:47:52;8.50;99.90
29721;DHT22;23665;51.044;3.748;2023-01-15T11:50:53;8.50;99.90
29721;DHT22;23665;51.044;3.748;2023-01-15T11:53:28;8.50;99.90
29721;DHT22;23665;51.044;3.748;2023-01-15T11:55:58;8.50;99.90
29721;DHT22;23665;51.044;3.748;2023-01-15T11:58:51;8.60;99.90
29721;DHT22;23665;51.044;3.748;2023-01-15T12:01:31;8.40;99.90
29721;DHT22;23665;51.044;3.748;2023-01-15T12:04:05;8.40;99.90
29721;DHT22;23665;51.044;3.748;2023-01-15T12:06:35;8.50;99.90
29721;DHT22;23665;51.044;3.748;2023-01-15T12:09:19;8.40;99.90
29721;DHT22;23665;51.044;3.748;2023-01-15T12:14:54;8.30;99.90
29721;DHT22;23665;51.044;3.748;2023-01-15T12:17:51;8.30;99.90
29721;DHT22;23665;51.044;3.748;2023-01-15T12:25:48;8.50;99.90
29721;DHT22;23665;51.044;3.748;2023-01-15T12:28:23;8.70;99.90
29721;DHT22;23665;51.044;3.748;2023-01-15T12:31:28;8.70;99.90
29721;DHT22;23665;51.044;3.748;2023-01-15T12:36:23;8.80;99.90
29721;DHT22;23665;51.044;3.748;2023-01-15T12:39:26;8.90;99.70
29721;DHT22;23665;51.044;3.748;2023-01-15T12:42:01;8.90;98.50
29721;DHT22;23665;51.044;3.748;2023-01-15T12:44:51;9.00;98.40
29721;DHT22;23665;51.044;3.748;2023-01-15T12:50:24;9.00;91.50
29721;DHT22;23665;51.044;3.748;2023-01-15T12:54:00;8.90;95.60
29721;DHT22;23665;51.044;3.748;2023-01-15T12:58:50;9.00;92.80
29721;DHT22;23665;51.044;3.748;2023-01-15T13:04:19;8.70;99.90
29721;DHT22;23665;51.044;3.748;2023-01-15T13:06:52;8.70;97.00
29721;DHT22;23665;51.044;3.748;2023-01-15T13:11:49;8.80;99.80
29721;DHT22;23665;51.044;3.748;2023-01-15T13:14:15;8.90;97.40
29721;DHT22;23665;51.044;3.748;2023-01-15T13:16:58;9.00;97.00
29721;DHT22;23665;51.044;3.748;2023-01-15T13:22:15;8.80;97.00
29721;DHT22;23665;51.044;3.748;2023-01-15T13:32:59;8.50;99.90
29721;DHT22;23665;51.044;3.748;2023-01-15T13:35:39;8.50;99.90
29721;DHT22;23665;51.044;3.748;2023-01-15T13:38:17;8.50;99.90
29721;DHT22;23665;51.044;3.748;2023-01-15T13:40:47;8.30;99.90
29721;DHT22;23665;51.044;3.748;2023-01-15T13:43:33;8.30;99.90
29721;DHT22;23665;51.044;3.748;2023-01-15T13:46:01;8.30;99.90
29721;DHT22;23665;51.044;3.748;2023-01-15T13:48:54;8.40;99.90
29721;DHT22;23665;51.044;3.748;2023-01-15T13:51:28;8.40;99.90
29721;DHT22;23665;51.044;3.748;2023-01-15T13:53:55;8.20;99.90
29721;DHT22;23665;51.044;3.748;2023-01-15T13:56:32;8.20;99.90
29721;DHT22;23665;51.044;3.748;2023-01-15T13:59:03;8.30;99.90
29721;DHT22;23665;51.044;3.748;2023-01-15T14:06:50;8.10;99.90
29721;DHT22;23665;51.044;3.748;2023-01-15T14:26:09;8.10;99.90
29721;DHT22;23665;51.044;3.748;2023-01-15T14:29:03;8.20;99.90
29721;DHT22;23665;51.044;3.748;2023-01-15T14:34:35;8.20;99.90
29721;DHT22;23665;51.044;3.748;2023-01-15T14:37:20;8.20;99.90
29721;DHT22;23665;51.044;3.748;2023-01-15T14:39:51;8.20;99.90
29721;DHT22;23665;51.044;3.748;2023-01-15T14:47:57;7.80;99.90
29721;DHT22;23665;51.044;3.748;2023-01-15T14:50:39;7.80;99.90
29721;DHT22;23665;51.044;3.748;2023-01-15T14:55:49;7.80;99.90
29721;DHT22;23665;51.044;3.748;2023-01-15T15:06:24;8.00;99.90
29721;DHT22;23665;51.044;3.748;2023-01-15T15:08:51;7.90;99.90
29721;DHT22;23665;51.044;3.748;2023-01-15T15:11:42;7.90;99.90
29721;DHT22;23665;51.044;3.748;2023-01-15T15:14:28;7.90;99.90
29721;DHT22;23665;51.044;3.748;2023-01-15T15:16:59;7.90;99.90
29721;DHT22;23665;51.044;3.748;2023-01-15T15:19:34;7.90;99.90
29721;DHT22;23665;51.044;3.748;2023-01-15T15:22:05;8.00;99.90
29721;DHT22;23665;51.044;3.748;2023-01-15T15:24:34;8.00;99.90
29721;DHT22;23665;51.044;3.748;2023-01-15T15:27:30;7.80;99.90
29721;DHT22;23665;51.044;3.748;2023-01-15T15:30:04;7.70;99.90
29721;DHT22;23665;51.044;3.748;2023-01-15T15:32:30;7.70;99.90
29721;DHT22;23665;51.044;3.748;2023-01-15T15:34:57;7.60;99.90
29721;DHT22;23665;51.044;3.748;2023-01-15T15:37:25;7.50;99.90
29721;DHT22;23665;51.044;3.748;2023-01-15T15:39:59;7.40;99.90
29721;DHT22;23665;51.044;3.748;2023-01-15T15:42:38;7.50;99.90
29721;DHT22;23665;51.044;3.748;2023-01-15T15:45:26;7.50;99.90
29721;DHT22;23665;51.044;3.748;2023-01-15T15:48:30;7.60;99.90
29721;DHT22;23665;51.044;3.748;2023-01-15T15:54:17;7.30;99.90
29721;DHT22;23665;51.044;3.748;2023-01-15T15:56:56;7.30;99.90
29721;DHT22;23665;51.044;3.748;2023-01-15T15:59:31;7.30;99.90
29721;DHT22;23665;51.044;3.748;2023-01-15T16:02:06;7.20;99.90
29721;DHT22;23665;51.044;3.748;2023-01-15T16:04:32;7.00;99.90
29721;DHT22;23665;51.044;3.748;2023-01-15T16:06:58;7.00;99.90
29721;DHT22;23665;51.044;3.748;2023-01-15T16:09:24;7.20;99.90
29721;DHT22;23665;51.044;3.748;2023-01-15T16:11:51;7.20;99.90
29721;DHT22;23665;51.044;3.748;2023-01-15T16:14:18;7.20;99.90
29721;DHT22;23665;51.044;3.748;2023-01-15T16:16:46;7.00;99.90
29721;DHT22;23665;51.044;3.748;2023-01-15T16:19:21;7.10;99.90
29721;DHT22;23665;51.044;3.748;2023-01-15T16:21:50;7.10;99.90
29721;DHT22;23665;51.044;3.748;2023-01-15T16:24:28;6.90;99.90
29721;DHT22;23665;51.044;3.748;2023-01-15T16:27:03;6.80;99.90
29721;DHT22;23665;51.044;3.748;2023-01-15T16:29:34;6.80;99.90
29721;DHT22;23665;51.044;3.748;2023-01-15T16:32:08;6.80;99.90
29721;DHT22;23665;51.044;3.748;2023-01-15T16:34:35;6.70;99.90
29721;DHT22;23665;51.044;3.748;2023-01-15T16:37:01;6.60;99.90
29721;DHT22;23665;51.044;3.748;2023-01-15T16:39:43;6.70;99.90
29721;DHT22;23665;51.044;3.748;2023-01-15T16:42:42;6.50;99.90
29721;DHT22;23665;51.044;3.748;2023-01-15T16:45:26;6.50;99.90
29721;DHT22;23665;51.044;3.748;2023-01-15T16:48:20;6.40;99.90
29721;DHT22;23665;51.044;3.748;2023-01-15T16:50:49;6.50;99.90
29721;DHT22;23665;51.044;3.748;2023-01-15T16:55:54;6.60;99.90
29721;DHT22;23665;51.044;3.748;2023-01-15T16:58:32;6.50;99.90
29721;DHT22;23665;51.044;3.748;2023-01-15T17:01:21;6.50;99.90
29721;DHT22;23665;51.044;3.748;2023-01-15T17:03:47;6.60;99.90
29721;DHT22;23665;51.044;3.748;2023-01-15T17:06:13;6.80;99.90
29721;DHT22;23665;51.044;3.748;2023-01-15T17:08:46;6.60;99.90
29721;DHT22;23665;51.044;3.748;2023-01-15T17:11:26;6.70;99.90
29721;DHT22;23665;51.044;3.748;2023-01-15T17:14:22;6.70;99.90
29721;DHT22;23665;51.044;3.748;2023-01-15T17:16:48;6.80;99.90
29721;DHT22;23665;51.044;3.748;2023-01-15T17:19:15;6.80;99.90
29721;DHT22;23665;51.044;3.748;2023-01-15T17:21:41;6.90;99.90
29721;DHT22;23665;51.044;3.748;2023-01-15T17:24:11;6.90;99.90
29721;DHT22;23665;51.044;3.748;2023-01-15T17:26:37;7.00;99.90
29721;DHT22;23665;51.044;3.748;2023-01-15T17:29:03;7.10;99.90
29721;DHT22;23665;51.044;3.748;2023-01-15T17:31:31;7.20;99.90
29721;DHT22;23665;51.044;3.748;2023-01-15T17:33:58;7.20;99.90
29721;DHT22;23665;51.044;3.748;2023-01-15T17:36:24;7.40;99.90
29721;DHT22;23665;51.044;3.748;2023-01-15T17:38:51;7.40;99.90
29721;DHT22;23665;51.044;3.748;2023-01-15T17:41:18;7.50;99.90
29721;DHT22;23665;51.044;3.748;2023-01-15T17:43:44;7.50;99.90
29721;DHT22;23665;51.044;3.748;2023-01-15T17:46:10;7.60;99.90
29721;DHT22;23665;51.044;3.748;2023-01-15T17:48:36;7.70;99.90
29721;DHT22;23665;51.044;3.748;2023-01-15T17:51:04;7.90;99.90
29721;DHT22;23665;51.044;3.748;2023-01-15T17:53:30;7.70;99.90
29721;DHT22;23665;51.044;3.748;2023-01-15T17:55:57;7.50;99.90
29721;DHT22;23665;51.044;3.748;2023-01-15T17:58:41;7.50;99.90
29721;DHT22;23665;51.044;3.748;2023-01-15T18:01:36;7.50;99.90
29721;DHT22;23665;51.044;3.748;2023-01-15T18:04:28;7.50;99.90
29721;DHT22;23665;51.044;3.748;2023-01-15T18:07:14;7.60;99.90
29721;DHT22;23665;51.044;3.748;2023-01-15T18:09:41;7.50;99.90
29721;DHT22;23665;51.044;3.748;2023-01-15T18:12:07;7.30;99.90
29721;DHT22;23665;51.044;3.748;2023-01-15T18:14:33;7.20;99.90
29721;DHT22;23665;51.044;3.748;2023-01-15T18:17:00;7.10;99.90